createdAt,value
2022-07-29T00:00:51.687Z,1.10
2022-07-29T00:03:18.104Z,1.27
2022-07-29T00:05:44.470Z,1.38
2022-07-29T00:08:12.723Z,1.70
2022-07-29T00:10:39.587Z,1.48
2022-07-29T00:13:05.966Z,1.30
2022-07-29T00:15:32.314Z,1.50
2022-07-29T00:17:58.605Z,1.40
2022-07-29T00:20:25.000Z,1.23
2022-07-29T00:22:51.330Z,1.30
2022-07-29T00:25:17.590Z,2.00
2022-07-29T00:27:43.941Z,1.25
2022-07-29T00:30:10.433Z,1.60
2022-07-29T00:32:36.702Z,1.40
2022-07-29T00:35:21.799Z,1.52
2022-07-29T00:37:48.146Z,1.45
2022-07-29T00:40:14.459Z,1.60
2022-07-29T00:42:47.336Z,1.15
2022-07-29T00:45:15.184Z,1.20
2022-07-29T00:47:41.843Z,1.20
2022-07-29T00:50:08.799Z,1.40
2022-07-29T00:52:36.618Z,1.60
2022-07-29T00:55:08.829Z,1.15
2022-07-29T00:57:35.937Z,1.33
2022-07-29T01:00:02.539Z,1.73
2022-07-29T01:02:28.891Z,1.10
2022-07-29T01:04:56.201Z,1.65
2022-07-29T01:07:22.503Z,1.40
2022-07-29T01:09:48.792Z,0.98
2022-07-29T01:12:17.481Z,1.30
2022-07-29T01:14:44.179Z,1.15
2022-07-29T01:17:52.450Z,1.20
2022-07-29T01:20:19.786Z,1.20
2022-07-29T01:23:04.678Z,1.30
2022-07-29T01:25:33.923Z,1.20
2022-07-29T01:28:25.533Z,1.45
2022-07-29T01:30:55.085Z,1.23
2022-07-29T01:33:46.359Z,1.52
2022-07-29T01:36:14.393Z,1.45
2022-07-29T01:38:42.221Z,1.27
2022-07-29T01:41:11.843Z,1.02
2022-07-29T01:43:45.040Z,1.33
2022-07-29T01:46:13.959Z,1.55
2022-07-29T01:48:46.000Z,1.20
2022-07-29T01:51:29.865Z,1.60
2022-07-29T01:54:02.640Z,1.60
2022-07-29T01:56:31.802Z,1.45
2022-07-29T01:58:59.490Z,1.45
2022-07-29T02:01:27.485Z,1.80
2022-07-29T02:03:54.373Z,1.65
2022-07-29T02:06:22.472Z,1.55
2022-07-29T02:08:49.823Z,1.60
2022-07-29T02:11:17.444Z,2.05
2022-07-29T02:13:44.666Z,2.08
2022-07-29T02:16:11.631Z,1.67
2022-07-29T02:18:39.996Z,1.80
2022-07-29T02:21:06.394Z,1.45
2022-07-29T02:23:50.060Z,1.58
2022-07-29T02:26:18.265Z,1.80
2022-07-29T02:28:44.667Z,1.50
2022-07-29T02:31:11.841Z,1.65
2022-07-29T02:33:38.505Z,1.70
2022-07-29T02:36:05.012Z,2.00
2022-07-29T02:38:50.467Z,2.10
2022-07-29T02:41:30.634Z,1.55
2022-07-29T02:43:59.444Z,2.05
2022-07-29T02:46:29.740Z,1.50
2022-07-29T02:48:59.059Z,1.50
2022-07-29T02:51:44.454Z,1.70
2022-07-29T02:56:39.120Z,1.65
2022-07-29T02:59:10.244Z,1.85
2022-07-29T03:01:39.905Z,2.05
2022-07-29T03:04:06.929Z,1.80
2022-07-29T03:06:38.438Z,1.55
2022-07-29T03:09:09.125Z,1.90
2022-07-29T03:11:42.499Z,1.88
2022-07-29T03:14:18.299Z,1.80
2022-07-29T03:16:45.063Z,1.60
2022-07-29T03:19:11.731Z,1.60
2022-07-29T03:21:38.043Z,2.00
2022-07-29T03:24:08.292Z,1.90
2022-07-29T03:26:39.103Z,1.67
2022-07-29T03:29:05.405Z,1.75
2022-07-29T03:31:32.294Z,2.42
2022-07-29T03:33:59.905Z,2.10
2022-07-29T03:36:26.157Z,2.47
2022-07-29T03:38:53.038Z,2.35
2022-07-29T03:41:22.406Z,2.78
2022-07-29T03:43:50.626Z,2.78
2022-07-29T03:46:17.514Z,3.38
2022-07-29T03:48:47.886Z,3.03
2022-07-29T03:51:14.441Z,3.40
2022-07-29T03:53:40.801Z,3.28
2022-07-29T03:56:07.503Z,2.97
2022-07-29T03:58:34.139Z,2.78
2022-07-29T04:01:00.651Z,2.90
2022-07-29T04:03:27.030Z,2.60
2022-07-29T04:06:03.364Z,2.70
2022-07-29T04:08:29.769Z,2.60
2022-07-29T04:10:56.189Z,2.88
2022-07-29T04:13:22.608Z,3.00
2022-07-29T04:15:48.964Z,2.30
2022-07-29T04:18:15.304Z,2.33
2022-07-29T04:20:41.594Z,2.22
2022-07-29T04:23:07.911Z,2.95
2022-07-29T04:25:34.214Z,3.95
2022-07-29T04:28:03.305Z,3.78
2022-07-29T04:30:30.068Z,4.32
2022-07-29T04:32:56.346Z,4.80
2022-07-29T04:35:22.754Z,4.93
2022-07-29T04:37:49.044Z,4.28
2022-07-29T04:40:15.421Z,4.05
2022-07-29T04:42:46.400Z,3.65
2022-07-29T04:45:13.298Z,3.58
2022-07-29T04:47:40.515Z,3.70
2022-07-29T04:50:08.019Z,3.35
2022-07-29T04:52:35.672Z,3.10
2022-07-29T04:55:02.453Z,3.47
2022-07-29T04:57:28.740Z,2.28
2022-07-29T04:59:55.200Z,2.50
2022-07-29T05:02:22.843Z,2.45
2022-07-29T05:04:49.540Z,2.38
2022-07-29T05:07:15.800Z,2.80
2022-07-29T05:09:42.078Z,1.95
2022-07-29T05:12:08.491Z,2.45
2022-07-29T05:14:34.792Z,2.45
2022-07-29T05:17:01.509Z,2.28
2022-07-29T05:19:27.829Z,2.35
2022-07-29T05:21:54.117Z,2.97
2022-07-29T05:24:20.565Z,2.28
2022-07-29T05:26:46.977Z,2.83
2022-07-29T05:29:44.730Z,2.30
2022-07-29T05:31:59.591Z,2.45
2022-07-29T05:34:26.735Z,2.55
2022-07-29T05:36:53.195Z,2.90
2022-07-29T05:39:19.505Z,2.60
2022-07-29T05:41:51.527Z,2.17
2022-07-29T05:44:18.499Z,2.58
2022-07-29T05:46:45.043Z,2.60
2022-07-29T05:49:12.219Z,2.88
2022-07-29T05:51:53.362Z,2.45
2022-07-29T05:54:19.666Z,2.22
2022-07-29T05:56:45.951Z,2.08
2022-07-29T05:59:17.921Z,2.40
2022-07-29T06:01:44.827Z,2.28
2022-07-29T06:04:11.387Z,2.38
2022-07-29T06:06:37.787Z,2.75
2022-07-29T06:09:12.522Z,2.53
2022-07-29T06:11:39.610Z,3.10
2022-07-29T06:14:06.077Z,2.50
2022-07-29T06:16:32.528Z,2.80
2022-07-29T06:18:58.900Z,2.80
2022-07-29T06:21:25.204Z,2.75
2022-07-29T06:23:51.481Z,2.95
2022-07-29T06:26:17.762Z,2.80
2022-07-29T06:28:44.087Z,2.80
2022-07-29T06:31:10.566Z,2.75
2022-07-29T06:33:36.992Z,2.15
2022-07-29T06:36:04.755Z,2.63
2022-07-29T06:38:34.308Z,2.53
2022-07-29T06:41:11.024Z,2.22
2022-07-29T06:43:50.251Z,2.20
2022-07-29T06:46:19.272Z,2.28
2022-07-29T06:48:46.010Z,2.08
2022-07-29T06:51:12.509Z,2.10
2022-07-29T06:53:39.214Z,2.00
2022-07-29T06:56:26.411Z,2.05
2022-07-29T06:58:53.002Z,1.90
2022-07-29T07:01:19.335Z,2.33
2022-07-29T07:03:45.694Z,2.17
2022-07-29T07:06:15.056Z,2.30
2022-07-29T07:08:41.642Z,2.58
2022-07-29T07:11:08.189Z,1.83
2022-07-29T07:13:36.641Z,1.92
2022-07-29T07:16:07.537Z,2.25
2022-07-29T07:18:34.053Z,2.33
2022-07-29T07:21:00.381Z,2.22
2022-07-29T07:23:26.765Z,2.28
2022-07-29T07:25:53.230Z,2.60
2022-07-29T07:28:24.864Z,2.63
2022-07-29T07:30:51.714Z,2.50
2022-07-29T07:33:18.023Z,2.55
2022-07-29T07:35:45.153Z,2.70
2022-07-29T07:38:11.453Z,2.10
2022-07-29T07:40:38.039Z,2.10
2022-07-29T07:43:04.349Z,2.70
2022-07-29T07:45:30.679Z,2.00
2022-07-29T07:47:57.011Z,2.25
2022-07-29T07:50:23.319Z,2.70
2022-07-29T07:52:53.661Z,2.20
2022-07-29T07:55:20.160Z,2.45
2022-07-29T07:57:46.863Z,2.30
2022-07-29T08:00:14.283Z,2.50
2022-07-29T08:02:41.106Z,2.40
2022-07-29T08:05:08.463Z,2.35
2022-07-29T08:07:39.145Z,2.45
2022-07-29T08:10:05.658Z,2.05
2022-07-29T08:12:31.980Z,3.15
2022-07-29T08:14:58.313Z,2.47
2022-07-29T08:17:24.630Z,2.42
2022-07-29T08:19:51.178Z,2.85
2022-07-29T08:22:17.543Z,2.63
2022-07-29T08:24:43.924Z,2.60
2022-07-29T08:27:33.609Z,2.60
2022-07-29T08:29:58.926Z,2.55
2022-07-29T08:32:52.724Z,2.55
2022-07-29T08:35:17.792Z,3.10
2022-07-29T08:37:44.101Z,2.80
2022-07-29T08:40:15.007Z,2.90
2022-07-29T08:42:41.436Z,2.97
2022-07-29T08:45:08.032Z,2.55
2022-07-29T08:47:34.511Z,3.40
2022-07-29T08:50:00.794Z,2.88
2022-07-29T08:52:27.215Z,3.00
2022-07-29T08:54:54.037Z,3.00
2022-07-29T08:57:21.006Z,3.00
2022-07-29T08:59:50.139Z,2.65
2022-07-29T09:02:28.295Z,2.45
2022-07-29T09:04:54.644Z,2.78
2022-07-29T09:07:22.328Z,2.47
2022-07-29T09:09:48.737Z,2.72
2022-07-29T09:12:28.877Z,2.80
2022-07-29T09:14:56.001Z,2.85
2022-07-29T09:17:42.849Z,2.90
2022-07-29T09:20:10.017Z,2.78
2022-07-29T09:22:41.482Z,2.60
2022-07-29T09:25:08.652Z,2.70
2022-07-29T09:27:35.278Z,2.67
2022-07-29T09:30:04.810Z,2.53
2022-07-29T09:32:31.286Z,2.95
2022-07-29T09:35:17.381Z,2.78
2022-07-29T09:37:44.558Z,3.47
2022-07-29T09:40:13.880Z,4.10
2022-07-29T09:42:41.590Z,3.67
2022-07-29T09:45:08.104Z,3.45
2022-07-29T09:47:45.990Z,3.40
2022-07-29T09:50:12.467Z,3.17
2022-07-29T09:52:53.075Z,3.63
2022-07-29T09:55:20.059Z,3.30
2022-07-29T09:57:47.520Z,3.15
2022-07-29T10:00:16.068Z,3.45
2022-07-29T10:02:44.944Z,3.08
2022-07-29T10:05:24.688Z,3.03
2022-07-29T10:07:53.961Z,3.45
2022-07-29T10:10:24.877Z,3.08
2022-07-29T10:12:56.885Z,2.80
2022-07-29T10:15:28.455Z,2.88
2022-07-29T10:17:56.140Z,3.03
2022-07-29T10:20:23.467Z,2.53
2022-07-29T10:22:53.449Z,3.10
2022-07-29T10:25:20.836Z,3.08
2022-07-29T10:27:49.517Z,3.10
2022-07-29T10:30:16.998Z,3.15
2022-07-29T10:32:52.456Z,3.25
2022-07-29T10:35:23.969Z,3.40
2022-07-29T10:38:12.435Z,3.10
2022-07-29T10:41:08.899Z,3.40
2022-07-29T10:43:38.778Z,3.25
2022-07-29T10:46:07.442Z,2.92
2022-07-29T10:48:34.342Z,2.60
2022-07-29T10:51:05.114Z,2.42
2022-07-29T10:53:53.439Z,3.10
2022-07-29T10:56:27.486Z,3.00
2022-07-29T10:59:14.467Z,3.20
2022-07-29T11:01:40.776Z,3.13
2022-07-29T11:04:16.364Z,3.50
2022-07-29T11:07:08.882Z,3.13
2022-07-29T11:09:38.331Z,3.00
2022-07-29T11:12:05.018Z,2.80
2022-07-29T11:14:50.346Z,2.75
2022-07-29T11:17:16.629Z,2.60
2022-07-29T11:19:48.012Z,3.33
2022-07-29T11:22:32.766Z,3.35
2022-07-29T11:25:16.738Z,3.17
2022-07-29T11:27:43.624Z,2.67
2022-07-29T11:30:13.093Z,2.70
2022-07-29T11:32:42.035Z,2.47
2022-07-29T11:35:37.345Z,2.45
2022-07-29T11:38:24.445Z,2.72
2022-07-29T11:41:13.101Z,2.58
2022-07-29T11:43:50.644Z,2.40
2022-07-29T11:46:17.683Z,2.30
2022-07-29T11:48:52.154Z,2.28
2022-07-29T11:51:18.836Z,2.03
2022-07-29T11:54:04.264Z,2.95
2022-07-29T11:56:33.080Z,2.25
2022-07-29T12:02:06.864Z,2.25
2022-07-29T12:04:53.409Z,2.33
2022-07-29T12:07:34.924Z,2.05
2022-07-29T12:10:02.430Z,2.47
2022-07-29T12:12:29.248Z,2.33
2022-07-29T12:14:57.005Z,2.33
2022-07-29T12:17:26.738Z,2.60
2022-07-29T12:19:58.188Z,2.35
2022-07-29T12:22:27.083Z,2.30
2022-07-29T12:25:02.170Z,2.35
2022-07-29T12:27:40.915Z,2.63
2022-07-29T12:30:08.922Z,2.30
2022-07-29T12:32:36.644Z,2.65
2022-07-29T12:35:08.679Z,2.50
2022-07-29T12:37:41.024Z,2.55
2022-07-29T12:40:13.570Z,2.27
2022-07-29T12:42:40.100Z,2.67
2022-07-29T12:45:08.750Z,2.40
2022-07-29T12:47:51.530Z,2.53
2022-07-29T12:50:22.151Z,2.00
2022-07-29T12:52:50.832Z,2.40
2022-07-29T12:55:17.280Z,2.75
2022-07-29T12:57:54.354Z,3.15
2022-07-29T13:00:24.822Z,2.58
2022-07-29T13:02:59.897Z,2.65
2022-07-29T13:05:40.059Z,2.83
2022-07-29T13:08:21.969Z,2.80
2022-07-29T13:10:48.505Z,2.92
2022-07-29T13:13:16.414Z,3.20
2022-07-29T13:15:49.934Z,3.30
2022-07-29T13:18:45.756Z,3.22
2022-07-29T13:21:16.016Z,3.00
2022-07-29T13:23:42.839Z,2.83
2022-07-29T13:26:10.103Z,2.78
2022-07-29T13:28:36.472Z,2.40
2022-07-29T13:31:03.015Z,2.70
2022-07-29T13:33:29.725Z,3.55
2022-07-29T13:35:57.239Z,2.85
2022-07-29T13:38:23.533Z,3.03
2022-07-29T13:40:57.538Z,4.47
2022-07-29T13:43:23.846Z,2.50
2022-07-29T13:45:50.196Z,3.17
2022-07-29T13:48:16.575Z,3.15
2022-07-29T13:50:42.847Z,2.47
2022-07-29T13:53:09.565Z,2.28
2022-07-29T13:58:10.146Z,2.45
2022-07-29T14:00:36.453Z,2.85
2022-07-29T14:03:02.753Z,3.75
2022-07-29T14:05:29.291Z,3.60
2022-07-29T14:07:55.641Z,3.40
2022-07-29T14:10:21.935Z,3.50
2022-07-29T14:12:48.281Z,2.78
2022-07-29T14:15:14.589Z,3.00
2022-07-29T14:17:40.851Z,3.22
2022-07-29T14:20:07.368Z,3.10
2022-07-29T14:22:36.868Z,2.88
2022-07-29T14:25:14.342Z,3.38
2022-07-29T14:27:41.717Z,3.00
2022-07-29T14:30:08.710Z,3.58
2022-07-29T14:32:36.059Z,2.70
2022-07-29T14:35:02.360Z,2.80
2022-07-29T14:37:28.797Z,3.17
2022-07-29T14:40:06.498Z,2.92
2022-07-29T14:42:32.787Z,3.08
2022-07-29T14:44:59.163Z,2.40
2022-07-29T14:47:25.471Z,3.05
2022-07-29T14:49:51.760Z,3.35
2022-07-29T14:52:20.736Z,2.63
2022-07-29T14:54:47.052Z,2.45
2022-07-29T14:57:13.377Z,2.28
2022-07-29T14:59:39.815Z,2.33
2022-07-29T15:02:06.169Z,2.17
2022-07-29T15:04:32.540Z,2.50
2022-07-29T15:06:58.855Z,2.72
2022-07-29T15:09:25.217Z,2.45
2022-07-29T15:11:51.519Z,2.40
2022-07-29T15:14:17.808Z,2.80
2022-07-29T15:16:46.742Z,1.67
2022-07-29T15:19:14.676Z,1.88
2022-07-29T15:21:41.550Z,2.03
2022-07-29T15:24:18.997Z,2.03
2022-07-29T15:26:45.621Z,1.98
2022-07-29T15:29:11.998Z,1.77
2022-07-29T15:31:38.456Z,1.52
2022-07-29T15:34:05.958Z,1.75
2022-07-29T15:39:19.011Z,1.70
2022-07-29T15:41:45.323Z,1.25
2022-07-29T15:44:11.601Z,2.00
2022-07-29T15:46:56.802Z,1.60
2022-07-29T15:49:31.309Z,1.55
2022-07-29T15:52:15.629Z,1.63
2022-07-29T15:54:41.911Z,2.05
2022-07-29T15:57:09.674Z,1.52
2022-07-29T15:59:37.460Z,1.83
2022-07-29T16:02:03.918Z,2.20
2022-07-29T16:04:30.296Z,1.98
2022-07-29T16:06:57.332Z,1.98
2022-07-29T16:09:24.037Z,1.90
2022-07-29T16:11:53.532Z,1.25
2022-07-29T16:14:19.960Z,1.40
2022-07-29T16:16:46.375Z,1.45
2022-07-29T16:19:12.738Z,1.35
2022-07-29T16:21:40.102Z,1.92
2022-07-29T16:24:06.737Z,1.80
2022-07-29T16:26:33.419Z,1.80
2022-07-29T16:29:02.199Z,1.38
2022-07-29T16:31:28.679Z,2.05
2022-07-29T16:33:56.009Z,2.03
2022-07-29T16:36:23.135Z,1.90
2022-07-29T16:38:49.554Z,2.05
2022-07-29T16:41:15.866Z,1.52
2022-07-29T16:43:44.643Z,1.33
2022-07-29T16:46:14.676Z,1.67
2022-07-29T16:48:45.570Z,1.90
2022-07-29T16:51:12.059Z,1.80
2022-07-29T16:53:40.997Z,1.90
2022-07-29T16:56:07.326Z,2.13
2022-07-29T16:58:40.519Z,1.50
2022-07-29T17:01:09.804Z,2.60
2022-07-29T17:04:02.292Z,2.53
2022-07-29T17:06:29.423Z,1.88
2022-07-29T17:08:56.181Z,2.10
2022-07-29T17:11:22.469Z,1.92
2022-07-29T17:14:09.357Z,2.42
2022-07-29T17:16:35.850Z,1.90
2022-07-29T17:19:02.307Z,2.15
2022-07-29T17:21:28.616Z,1.60
2022-07-29T17:23:54.982Z,2.15
2022-07-29T17:26:21.322Z,1.90
2022-07-29T17:28:48.940Z,1.88
2022-07-29T17:31:15.403Z,1.65
2022-07-29T17:33:41.758Z,1.52
2022-07-29T17:36:26.624Z,1.95
2022-07-29T17:38:54.146Z,2.10
2022-07-29T17:41:21.524Z,1.55
2022-07-29T17:43:48.407Z,1.73
2022-07-29T17:46:16.409Z,2.22
2022-07-29T17:48:42.833Z,2.22
2022-07-29T17:51:09.818Z,2.10
2022-07-29T17:53:36.470Z,1.55
2022-07-29T17:56:02.981Z,1.83
2022-07-29T17:58:29.365Z,2.03
2022-07-29T18:00:55.754Z,1.48
2022-07-29T18:03:22.195Z,2.20
2022-07-29T18:05:49.417Z,1.90
2022-07-29T18:08:16.858Z,1.75
2022-07-29T18:10:43.637Z,2.22
2022-07-29T18:13:16.468Z,2.08
2022-07-29T18:15:43.330Z,1.90
2022-07-29T18:18:11.498Z,1.92
2022-07-29T18:20:37.817Z,1.95
2022-07-29T18:23:06.933Z,1.95
2022-07-29T18:25:33.290Z,2.53
2022-07-29T18:28:00.693Z,2.40
2022-07-29T18:30:27.916Z,2.63
2022-07-29T18:33:19.165Z,1.98
2022-07-29T18:35:40.590Z,1.73
2022-07-29T18:38:07.881Z,2.30
2022-07-29T18:40:34.432Z,2.38
2022-07-29T18:43:00.988Z,2.50
2022-07-29T18:45:28.647Z,2.40
2022-07-29T18:47:56.195Z,3.00
2022-07-29T18:50:26.953Z,2.50
2022-07-29T18:52:56.408Z,2.80
2022-07-29T18:55:22.800Z,3.08
2022-07-29T18:57:54.256Z,2.78
2022-07-29T19:00:25.779Z,2.40
2022-07-29T19:02:54.430Z,2.50
2022-07-29T19:05:23.626Z,2.42
2022-07-29T19:07:49.946Z,2.63
2022-07-29T19:10:16.602Z,3.45
2022-07-29T19:12:42.989Z,2.60
2022-07-29T19:15:10.525Z,2.85
2022-07-29T19:17:36.913Z,2.88
2022-07-29T19:20:03.385Z,2.58
2022-07-29T19:22:30.746Z,3.08
2022-07-29T19:24:57.059Z,3.53
2022-07-29T19:27:23.366Z,2.50
2022-07-29T19:29:49.693Z,2.65
2022-07-29T19:32:24.852Z,3.38
2022-07-29T19:35:10.351Z,3.83
2022-07-29T19:37:37.310Z,4.20
2022-07-29T19:40:04.056Z,3.22
2022-07-29T19:42:30.344Z,3.22
2022-07-29T19:45:02.391Z,3.10
2022-07-29T19:47:28.661Z,3.65
2022-07-29T19:49:54.949Z,3.50
2022-07-29T19:52:21.244Z,3.08
2022-07-29T19:54:47.512Z,3.63
2022-07-29T19:57:14.102Z,3.15
2022-07-29T19:59:40.629Z,2.92
2022-07-29T20:02:09.899Z,3.10
2022-07-29T20:04:36.810Z,3.65
2022-07-29T20:07:03.554Z,3.13
2022-07-29T20:09:29.898Z,2.95
2022-07-29T20:11:56.209Z,3.63
2022-07-29T20:14:25.548Z,3.35
2022-07-29T20:16:53.954Z,3.33
2022-07-29T20:19:20.269Z,3.42
2022-07-29T20:21:46.590Z,3.30
2022-07-29T20:24:12.989Z,3.72
2022-07-29T20:26:39.349Z,4.15
2022-07-29T20:29:05.742Z,4.38
2022-07-29T20:31:32.433Z,4.63
2022-07-29T20:33:58.920Z,3.60
2022-07-29T20:36:25.243Z,3.40
2022-07-29T20:38:51.523Z,3.58
2022-07-29T20:41:17.897Z,4.13
2022-07-29T20:43:45.383Z,4.20
2022-07-29T20:46:11.840Z,3.72
2022-07-29T20:48:39.777Z,3.63
2022-07-29T20:51:06.236Z,4.22
2022-07-29T20:53:33.708Z,3.78
2022-07-29T20:56:00.157Z,3.70
2022-07-29T20:58:26.880Z,3.47
2022-07-29T21:00:53.205Z,4.43
2022-07-29T21:03:19.537Z,3.97
2022-07-29T21:05:45.820Z,4.32
2022-07-29T21:08:12.122Z,4.72
2022-07-29T21:10:40.746Z,4.45
2022-07-29T21:13:07.429Z,5.07
2022-07-29T21:15:35.820Z,5.32
2022-07-29T21:18:04.693Z,4.53
2022-07-29T21:20:31.100Z,3.92
2022-07-29T21:22:57.953Z,4.50
2022-07-29T21:25:25.049Z,4.05
2022-07-29T21:28:10.305Z,4.10
2022-07-29T21:30:36.814Z,4.15
2022-07-29T21:33:03.407Z,3.97
2022-07-29T21:35:45.297Z,4.53
2022-07-29T21:38:16.820Z,4.28
2022-07-29T21:40:43.571Z,4.13
2022-07-29T21:43:11.421Z,3.60
2022-07-29T21:45:38.019Z,4.22
2022-07-29T21:48:04.842Z,4.43
2022-07-29T21:50:31.365Z,4.30
2022-07-29T21:52:57.668Z,3.28
2022-07-29T21:55:26.639Z,3.63
2022-07-29T21:57:54.716Z,3.70
2022-07-29T22:00:22.197Z,4.10
2022-07-29T22:02:48.527Z,3.95
2022-07-29T22:05:15.131Z,3.88
2022-07-29T22:07:54.506Z,3.78
2022-07-29T22:10:23.548Z,3.60
2022-07-29T22:12:51.993Z,3.60
2022-07-29T22:15:18.327Z,4.13
2022-07-29T22:17:44.603Z,4.28
2022-07-29T22:20:11.200Z,3.55
2022-07-29T22:22:37.596Z,3.60
2022-07-29T22:25:04.962Z,3.78
2022-07-29T22:27:31.240Z,5.03
2022-07-29T22:29:58.342Z,4.30
2022-07-29T22:32:24.658Z,3.78
2022-07-29T22:34:50.911Z,4.57
2022-07-29T22:37:17.489Z,4.53
2022-07-29T22:39:43.993Z,4.68
2022-07-29T22:42:10.305Z,5.05
2022-07-29T22:44:36.686Z,4.32
2022-07-29T22:47:04.297Z,5.13
2022-07-29T22:49:30.884Z,4.93
2022-07-29T22:51:57.160Z,4.63
2022-07-29T22:54:23.419Z,4.93
2022-07-29T22:56:49.738Z,5.15
2022-07-29T22:59:16.107Z,4.97
2022-07-29T23:01:42.401Z,4.85
2022-07-29T23:04:08.801Z,4.88
2022-07-29T23:06:35.186Z,4.63
2022-07-29T23:09:01.483Z,5.03
2022-07-29T23:11:27.770Z,4.65
2022-07-29T23:13:54.057Z,5.70
2022-07-29T23:16:26.277Z,10.73
2022-07-29T23:18:53.383Z,6.80
2022-07-29T23:21:20.789Z,22.75
2022-07-29T23:23:48.364Z,10.43
2022-07-29T23:26:16.758Z,7.32
2022-07-29T23:28:46.145Z,7.55
2022-07-29T23:31:13.526Z,13.02
2022-07-29T23:33:40.611Z,9.75
2022-07-29T23:36:06.920Z,5.95
2022-07-29T23:38:33.213Z,8.32
2022-07-29T23:41:01.487Z,10.52
2022-07-29T23:43:27.960Z,5.32
2022-07-29T23:45:54.435Z,6.00
2022-07-29T23:48:20.797Z,5.15
2022-07-29T23:50:47.118Z,5.60
2022-07-29T23:53:13.386Z,8.90
2022-07-29T23:55:39.734Z,10.82
2022-07-29T23:58:06.056Z,5.53
